sensor_id;sensor_type;location;lat;lon;timestamp;temperature;humidity
1461;DHT22;724;49.910;12.530;2022-12-07T00:01:38;0.10;99.90
1461;DHT22;724;49.910;12.530;2022-12-07T00:04:06;0.10;99.90
1461;DHT22;724;49.910;12.530;2022-12-07T00:06:39;0.10;99.90
1461;DHT22;724;49.910;12.530;2022-12-07T00:09:09;0.10;99.90
1461;DHT22;724;49.910;12.530;2022-12-07T00:11:36;0.10;99.90
1461;DHT22;724;49.910;12.530;2022-12-07T00:14:05;0.10;99.90
1461;DHT22;724;49.910;12.530;2022-12-07T00:16:34;0.20;99.90
1461;DHT22;724;49.910;12.530;2022-12-07T00:19:02;0.10;99.90
1461;DHT22;724;49.910;12.530;2022-12-07T00:21:35;0.10;99.90
1461;DHT22;724;49.910;12.530;2022-12-07T00:24:05;0.10;99.90
1461;DHT22;724;49.910;12.530;2022-12-07T00:26:33;0.10;99.90
1461;DHT22;724;49.910;12.530;2022-12-07T00:29:03;0.10;99.90
1461;DHT22;724;49.910;12.530;2022-12-07T00:31:32;0.10;99.90
1461;DHT22;724;49.910;12.530;2022-12-07T00:34:04;0.10;99.90
1461;DHT22;724;49.910;12.530;2022-12-07T00:36:31;0.10;99.90
1461;DHT22;724;49.910;12.530;2022-12-07T00:39:00;0.10;99.90
1461;DHT22;724;49.910;12.530;2022-12-07T00:41:29;0.20;99.90
1461;DHT22;724;49.910;12.530;2022-12-07T00:43:57;0.20;99.90
1461;DHT22;724;49.910;12.530;2022-12-07T00:46:24;0.10;99.90
1461;DHT22;724;49.910;12.530;2022-12-07T00:48:52;0.10;99.90
1461;DHT22;724;49.910;12.530;2022-12-07T00:51:21;0.10;99.90
1461;DHT22;724;49.910;12.530;2022-12-07T00:53:49;0.10;99.90
1461;DHT22;724;49.910;12.530;2022-12-07T00:56:20;0.10;99.90
1461;DHT22;724;49.910;12.530;2022-12-07T00:58:52;0.10;99.90
1461;DHT22;724;49.910;12.530;2022-12-07T01:01:19;0.10;99.90
1461;DHT22;724;49.910;12.530;2022-12-07T01:03:47;0.10;99.90
1461;DHT22;724;49.910;12.530;2022-12-07T01:06:16;0.20;99.90
1461;DHT22;724;49.910;12.530;2022-12-07T01:08:44;0.10;99.90
1461;DHT22;724;49.910;12.530;2022-12-07T01:11:13;0.10;99.90
1461;DHT22;724;49.910;12.530;2022-12-07T01:13:40;0.10;99.90
1461;DHT22;724;49.910;12.530;2022-12-07T01:16:12;0.10;99.90
1461;DHT22;724;49.910;12.530;2022-12-07T01:18:41;0.20;99.90
1461;DHT22;724;49.910;12.530;2022-12-07T01:21:11;0.10;99.90
1461;DHT22;724;49.910;12.530;2022-12-07T01:23:38;0.10;99.90
1461;DHT22;724;49.910;12.530;2022-12-07T01:26:07;0.10;99.90
1461;DHT22;724;49.910;12.530;2022-12-07T01:28:35;0.10;99.90
1461;DHT22;724;49.910;12.530;2022-12-07T01:31:04;0.10;99.90
1461;DHT22;724;49.910;12.530;2022-12-07T01:33:34;0.10;99.90
1461;DHT22;724;49.910;12.530;2022-12-07T01:36:02;0.10;99.90
1461;DHT22;724;49.910;12.530;2022-12-07T01:38:29;0.10;99.90
1461;DHT22;724;49.910;12.530;2022-12-07T01:40:57;0.10;99.90
1461;DHT22;724;49.910;12.530;2022-12-07T01:43:26;0.00;99.90
1461;DHT22;724;49.910;12.530;2022-12-07T01:45:54;0.00;99.90
1461;DHT22;724;49.910;12.530;2022-12-07T01:48:24;0.00;99.90
1461;DHT22;724;49.910;12.530;2022-12-07T01:50:55;-0.10;99.90
1461;DHT22;724;49.910;12.530;2022-12-07T01:53:25;0.00;99.90
1461;DHT22;724;49.910;12.530;2022-12-07T01:55:55;-0.10;99.90
1461;DHT22;724;49.910;12.530;2022-12-07T01:58:23;-0.10;99.90
1461;DHT22;724;49.910;12.530;2022-12-07T02:00:50;-0.10;99.90
1461;DHT22;724;49.910;12.530;2022-12-07T02:03:21;-0.20;99.90
1461;DHT22;724;49.910;12.530;2022-12-07T02:05:49;-0.20;99.90
1461;DHT22;724;49.910;12.530;2022-12-07T02:08:17;-0.20;99.90
1461;DHT22;724;49.910;12.530;2022-12-07T02:10:44;-0.30;99.90
1461;DHT22;724;49.910;12.530;2022-12-07T02:13:13;-0.30;99.90
1461;DHT22;724;49.910;12.530;2022-12-07T02:16:03;-0.30;99.90
1461;DHT22;724;49.910;12.530;2022-12-07T02:18:42;-0.40;99.90
1461;DHT22;724;49.910;12.530;2022-12-07T02:21:16;-0.30;99.90
1461;DHT22;724;49.910;12.530;2022-12-07T02:24:11;-0.40;99.90
1461;DHT22;724;49.910;12.530;2022-12-07T02:27:03;-0.30;99.90
1461;DHT22;724;49.910;12.530;2022-12-07T02:29:38;-0.30;99.90
1461;DHT22;724;49.910;12.530;2022-12-07T02:32:13;-0.30;99.90
1461;DHT22;724;49.910;12.530;2022-12-07T02:34:46;-0.40;99.90
1461;DHT22;724;49.910;12.530;2022-12-07T02:37:24;-0.30;99.90
1461;DHT22;724;49.910;12.530;2022-12-07T02:39:56;-0.30;99.90
1461;DHT22;724;49.910;12.530;2022-12-07T02:42:28;-0.30;99.90
1461;DHT22;724;49.910;12.530;2022-12-07T02:44:59;-0.30;99.90
1461;DHT22;724;49.910;12.530;2022-12-07T02:47:28;-0.40;99.90
1461;DHT22;724;49.910;12.530;2022-12-07T02:49:57;-0.50;99.90
1461;DHT22;724;49.910;12.530;2022-12-07T02:52:24;-0.50;99.90
1461;DHT22;724;49.910;12.530;2022-12-07T02:54:52;-0.50;99.90
1461;DHT22;724;49.910;12.530;2022-12-07T02:57:30;-0.50;99.90
1461;DHT22;724;49.910;12.530;2022-12-07T03:00:05;-0.50;99.90
1461;DHT22;724;49.910;12.530;2022-12-07T03:02:42;-0.60;99.90
1461;DHT22;724;49.910;12.530;2022-12-07T03:05:31;-0.40;99.90
1461;DHT22;724;49.910;12.530;2022-12-07T03:08:06;-0.50;99.90
1461;DHT22;724;49.910;12.530;2022-12-07T03:10:42;-0.50;99.90
1461;DHT22;724;49.910;12.530;2022-12-07T03:13:19;-0.60;99.90
1461;DHT22;724;49.910;12.530;2022-12-07T03:15:55;-0.50;99.90
1461;DHT22;724;49.910;12.530;2022-12-07T03:18:25;-0.60;99.90
1461;DHT22;724;49.910;12.530;2022-12-07T03:21:00;-0.60;99.90
1461;DHT22;724;49.910;12.530;2022-12-07T03:23:32;-0.70;99.90
1461;DHT22;724;49.910;12.530;2022-12-07T03:26:03;-0.70;99.90
1461;DHT22;724;49.910;12.530;2022-12-07T03:28:33;-0.70;99.90
1461;DHT22;724;49.910;12.530;2022-12-07T03:31:05;-0.70;99.90
1461;DHT22;724;49.910;12.530;2022-12-07T03:33:39;-0.70;99.90
1461;DHT22;724;49.910;12.530;2022-12-07T03:36:09;-0.80;99.90
1461;DHT22;724;49.910;12.530;2022-12-07T03:38:40;-0.80;99.90
1461;DHT22;724;49.910;12.530;2022-12-07T03:41:10;-0.70;99.90
1461;DHT22;724;49.910;12.530;2022-12-07T03:43:39;-0.70;99.90
1461;DHT22;724;49.910;12.530;2022-12-07T03:46:17;-0.70;99.90
1461;DHT22;724;49.910;12.530;2022-12-07T03:48:48;-0.60;99.90
1461;DHT22;724;49.910;12.530;2022-12-07T03:51:22;-0.70;99.90
1461;DHT22;724;49.910;12.530;2022-12-07T03:53:56;-0.70;99.90
1461;DHT22;724;49.910;12.530;2022-12-07T03:56:26;-0.80;99.90
1461;DHT22;724;49.910;12.530;2022-12-07T03:58:54;-0.90;99.90
1461;DHT22;724;49.910;12.530;2022-12-07T04:01:24;-0.80;99.90
1461;DHT22;724;49.910;12.530;2022-12-07T04:03:51;-0.80;99.90
1461;DHT22;724;49.910;12.530;2022-12-07T04:06:18;-0.80;99.90
1461;DHT22;724;49.910;12.530;2022-12-07T04:08:45;-0.90;99.90
1461;DHT22;724;49.910;12.530;2022-12-07T04:11:12;-0.90;99.90
1461;DHT22;724;49.910;12.530;2022-12-07T04:13:39;-0.90;99.90
1461;DHT22;724;49.910;12.530;2022-12-07T04:16:23;-0.90;99.90
1461;DHT22;724;49.910;12.530;2022-12-07T04:18:51;-0.90;99.90
1461;DHT22;724;49.910;12.530;2022-12-07T04:21:18;-0.90;99.90
1461;DHT22;724;49.910;12.530;2022-12-07T04:23:45;-1.00;99.90
1461;DHT22;724;49.910;12.530;2022-12-07T04:26:11;-1.00;99.90
1461;DHT22;724;49.910;12.530;2022-12-07T04:28:38;-1.00;99.90
1461;DHT22;724;49.910;12.530;2022-12-07T04:31:05;-0.90;99.90
1461;DHT22;724;49.910;12.530;2022-12-07T04:33:35;-0.80;99.90
1461;DHT22;724;49.910;12.530;2022-12-07T04:36:02;-0.90;99.90
1461;DHT22;724;49.910;12.530;2022-12-07T04:38:31;-1.00;99.90
1461;DHT22;724;49.910;12.530;2022-12-07T04:40:57;-1.00;99.90
1461;DHT22;724;49.910;12.530;2022-12-07T04:43:24;-1.00;99.90
1461;DHT22;724;49.910;12.530;2022-12-07T04:45:51;-1.00;99.90
1461;DHT22;724;49.910;12.530;2022-12-07T04:48:18;-1.00;99.90
1461;DHT22;724;49.910;12.530;2022-12-07T04:50:47;-0.90;99.90
1461;DHT22;724;49.910;12.530;2022-12-07T04:53:15;-0.90;99.90
1461;DHT22;724;49.910;12.530;2022-12-07T04:55:41;-0.80;99.90
1461;DHT22;724;49.910;12.530;2022-12-07T04:58:08;-0.90;99.90
1461;DHT22;724;49.910;12.530;2022-12-07T05:00:35;-0.80;99.90
1461;DHT22;724;49.910;12.530;2022-12-07T05:03:02;-0.90;99.90
1461;DHT22;724;49.910;12.530;2022-12-07T05:05:28;-0.90;99.90
1461;DHT22;724;49.910;12.530;2022-12-07T05:07:56;-0.90;99.90
1461;DHT22;724;49.910;12.530;2022-12-07T05:10:24;-0.90;99.90
1461;DHT22;724;49.910;12.530;2022-12-07T05:12:50;-0.80;99.90
1461;DHT22;724;49.910;12.530;2022-12-07T05:15:18;-0.90;99.90
1461;DHT22;724;49.910;12.530;2022-12-07T05:17:45;-0.80;99.90
1461;DHT22;724;49.910;12.530;2022-12-07T05:20:12;-0.80;99.90
1461;DHT22;724;49.910;12.530;2022-12-07T05:22:39;-0.90;99.90
1461;DHT22;724;49.910;12.530;2022-12-07T05:25:08;-0.90;99.90
1461;DHT22;724;49.910;12.530;2022-12-07T05:27:34;-0.90;99.90
1461;DHT22;724;49.910;12.530;2022-12-07T05:30:02;-0.90;99.90
1461;DHT22;724;49.910;12.530;2022-12-07T05:32:29;-0.90;99.90
1461;DHT22;724;49.910;12.530;2022-12-07T05:34:55;-0.90;99.90
1461;DHT22;724;49.910;12.530;2022-12-07T05:37:22;-0.90;99.90
1461;DHT22;724;49.910;12.530;2022-12-07T05:39:49;-0.90;99.90
1461;DHT22;724;49.910;12.530;2022-12-07T05:42:18;-0.90;99.90
1461;DHT22;724;49.910;12.530;2022-12-07T05:44:45;-0.80;99.90
1461;DHT22;724;49.910;12.530;2022-12-07T05:47:13;-0.90;99.90
1461;DHT22;724;49.910;12.530;2022-12-07T05:49:41;-0.90;99.90
1461;DHT22;724;49.910;12.530;2022-12-07T05:52:08;-0.90;99.90
1461;DHT22;724;49.910;12.530;2022-12-07T05:54:35;-0.90;99.90
1461;DHT22;724;49.910;12.530;2022-12-07T05:57:02;-0.90;99.90
1461;DHT22;724;49.910;12.530;2022-12-07T05:59:30;-0.80;99.90
1461;DHT22;724;49.910;12.530;2022-12-07T06:01:57;-0.90;99.90
1461;DHT22;724;49.910;12.530;2022-12-07T06:04:25;-0.90;99.90
1461;DHT22;724;49.910;12.530;2022-12-07T06:06:53;-0.80;99.90
1461;DHT22;724;49.910;12.530;2022-12-07T06:09:20;-0.80;99.90
1461;DHT22;724;49.910;12.530;2022-12-07T06:11:48;-0.90;99.90
1461;DHT22;724;49.910;12.530;2022-12-07T06:14:33;-0.80;99.90
1461;DHT22;724;49.910;12.530;2022-12-07T06:17:00;-0.80;99.90
1461;DHT22;724;49.910;12.530;2022-12-07T06:19:27;-0.70;99.90
1461;DHT22;724;49.910;12.530;2022-12-07T06:21:55;-0.70;99.90
1461;DHT22;724;49.910;12.530;2022-12-07T06:24:22;-0.80;99.90
1461;DHT22;724;49.910;12.530;2022-12-07T06:26:49;-0.80;99.90
1461;DHT22;724;49.910;12.530;2022-12-07T06:29:16;-0.80;99.90
1461;DHT22;724;49.910;12.530;2022-12-07T06:31:45;-0.80;99.90
1461;DHT22;724;49.910;12.530;2022-12-07T06:34:13;-0.70;99.90
1461;DHT22;724;49.910;12.530;2022-12-07T06:36:42;-0.80;99.90
1461;DHT22;724;49.910;12.530;2022-12-07T06:39:09;-0.80;99.90
1461;DHT22;724;49.910;12.530;2022-12-07T06:41:36;-0.80;99.90
1461;DHT22;724;49.910;12.530;2022-12-07T06:44:03;-0.80;99.90
1461;DHT22;724;49.910;12.530;2022-12-07T06:46:30;-0.80;99.90
1461;DHT22;724;49.910;12.530;2022-12-07T06:48:59;-0.80;99.90
1461;DHT22;724;49.910;12.530;2022-12-07T06:51:26;-0.80;99.90
1461;DHT22;724;49.910;12.530;2022-12-07T06:54:01;-0.80;99.90
1461;DHT22;724;49.910;12.530;2022-12-07T06:56:31;-0.70;99.90
1461;DHT22;724;49.910;12.530;2022-12-07T06:58:58;-0.70;99.90
1461;DHT22;724;49.910;12.530;2022-12-07T07:01:24;-0.70;99.90
1461;DHT22;724;49.910;12.530;2022-12-07T07:03:51;-0.70;99.90
1461;DHT22;724;49.910;12.530;2022-12-07T07:06:20;-0.80;99.90
1461;DHT22;724;49.910;12.530;2022-12-07T07:08:46;-0.80;99.90
1461;DHT22;724;49.910;12.530;2022-12-07T07:11:13;-0.80;99.90
1461;DHT22;724;49.910;12.530;2022-12-07T07:13:41;-0.70;99.90
1461;DHT22;724;49.910;12.530;2022-12-07T07:16:08;-0.70;99.90
1461;DHT22;724;49.910;12.530;2022-12-07T07:18:36;-0.80;99.90
1461;DHT22;724;49.910;12.530;2022-12-07T07:21:03;-0.70;99.90
1461;DHT22;724;49.910;12.530;2022-12-07T07:23:31;-0.80;99.90
1461;DHT22;724;49.910;12.530;2022-12-07T07:25:58;-0.80;99.90
1461;DHT22;724;49.910;12.530;2022-12-07T07:28:25;-0.70;99.90
1461;DHT22;724;49.910;12.530;2022-12-07T07:30:52;-0.70;99.90
1461;DHT22;724;49.910;12.530;2022-12-07T07:33:19;-0.70;99.90
1461;DHT22;724;49.910;12.530;2022-12-07T07:35:47;-0.80;99.90
1461;DHT22;724;49.910;12.530;2022-12-07T07:38:14;-0.70;99.90
1461;DHT22;724;49.910;12.530;2022-12-07T07:40:42;-0.70;99.90
1461;DHT22;724;49.910;12.530;2022-12-07T07:43:10;-0.70;99.90
1461;DHT22;724;49.910;12.530;2022-12-07T07:45:36;-0.80;99.90
1461;DHT22;724;49.910;12.530;2022-12-07T07:48:03;-0.80;99.90
1461;DHT22;724;49.910;12.530;2022-12-07T07:50:30;-0.80;99.90
1461;DHT22;724;49.910;12.530;2022-12-07T07:52:57;-0.70;99.90
1461;DHT22;724;49.910;12.530;2022-12-07T07:55:24;-0.70;99.90
1461;DHT22;724;49.910;12.530;2022-12-07T07:57:52;-0.70;99.90
1461;DHT22;724;49.910;12.530;2022-12-07T08:00:21;-0.60;99.90
1461;DHT22;724;49.910;12.530;2022-12-07T08:02:48;-0.60;99.90
1461;DHT22;724;49.910;12.530;2022-12-07T08:05:15;-0.70;99.90
1461;DHT22;724;49.910;12.530;2022-12-07T08:07:41;-0.70;99.90
1461;DHT22;724;49.910;12.530;2022-12-07T08:10:11;-0.70;99.90
1461;DHT22;724;49.910;12.530;2022-12-07T08:12:38;-0.70;99.90
1461;DHT22;724;49.910;12.530;2022-12-07T08:15:28;-0.70;99.90
1461;DHT22;724;49.910;12.530;2022-12-07T08:17:55;-0.70;99.90
1461;DHT22;724;49.910;12.530;2022-12-07T08:20:22;-0.70;99.90
1461;DHT22;724;49.910;12.530;2022-12-07T08:22:49;-0.60;99.90
1461;DHT22;724;49.910;12.530;2022-12-07T08:25:16;-0.60;99.90
1461;DHT22;724;49.910;12.530;2022-12-07T08:27:43;-0.60;99.90
1461;DHT22;724;49.910;12.530;2022-12-07T08:30:10;-0.60;99.90
1461;DHT22;724;49.910;12.530;2022-12-07T08:32:38;-0.60;99.90
1461;DHT22;724;49.910;12.530;2022-12-07T08:35:06;-0.60;99.90
1461;DHT22;724;49.910;12.530;2022-12-07T08:37:33;-0.60;99.90
1461;DHT22;724;49.910;12.530;2022-12-07T08:40:00;-0.60;99.90
1461;DHT22;724;49.910;12.530;2022-12-07T08:42:26;-0.60;99.90
1461;DHT22;724;49.910;12.530;2022-12-07T08:44:55;-0.50;99.90
1461;DHT22;724;49.910;12.530;2022-12-07T08:47:23;-0.50;99.90
1461;DHT22;724;49.910;12.530;2022-12-07T08:49:52;-0.50;99.90
1461;DHT22;724;49.910;12.530;2022-12-07T08:52:19;-0.50;99.90
1461;DHT22;724;49.910;12.530;2022-12-07T08:54:47;-0.50;99.90
1461;DHT22;724;49.910;12.530;2022-12-07T08:57:14;-0.50;99.90
1461;DHT22;724;49.910;12.530;2022-12-07T08:59:41;-0.60;99.90
1461;DHT22;724;49.910;12.530;2022-12-07T09:02:07;-0.50;99.90
1461;DHT22;724;49.910;12.530;2022-12-07T09:04:34;-0.50;99.90
1461;DHT22;724;49.910;12.530;2022-12-07T09:07:02;-0.60;99.90
1461;DHT22;724;49.910;12.530;2022-12-07T09:09:30;-0.50;99.90
1461;DHT22;724;49.910;12.530;2022-12-07T09:11:57;-0.60;99.90
1461;DHT22;724;49.910;12.530;2022-12-07T09:14:24;-0.50;99.90
1461;DHT22;724;49.910;12.530;2022-12-07T09:16:51;-0.50;99.90
1461;DHT22;724;49.910;12.530;2022-12-07T09:19:18;-0.60;99.90
1461;DHT22;724;49.910;12.530;2022-12-07T09:21:45;-0.50;99.90
1461;DHT22;724;49.910;12.530;2022-12-07T09:24:13;-0.50;99.90
1461;DHT22;724;49.910;12.530;2022-12-07T09:26:39;-0.60;99.90
1461;DHT22;724;49.910;12.530;2022-12-07T09:29:06;-0.50;99.90
1461;DHT22;724;49.910;12.530;2022-12-07T09:31:36;-0.50;99.90
1461;DHT22;724;49.910;12.530;2022-12-07T09:34:02;-0.50;99.90
1461;DHT22;724;49.910;12.530;2022-12-07T09:36:30;-0.60;99.90
1461;DHT22;724;49.910;12.530;2022-12-07T09:38:57;-0.50;99.90
1461;DHT22;724;49.910;12.530;2022-12-07T09:41:27;-0.50;99.90
1461;DHT22;724;49.910;12.530;2022-12-07T09:44:03;-0.50;99.90
1461;DHT22;724;49.910;12.530;2022-12-07T09:46:33;-0.50;99.90
1461;DHT22;724;49.910;12.530;2022-12-07T09:49:05;-0.50;99.90
1461;DHT22;724;49.910;12.530;2022-12-07T09:51:32;-0.50;99.90
1461;DHT22;724;49.910;12.530;2022-12-07T09:54:00;-0.50;99.90
1461;DHT22;724;49.910;12.530;2022-12-07T09:56:30;-0.50;99.90
1461;DHT22;724;49.910;12.530;2022-12-07T09:58:59;-0.50;99.90
1461;DHT22;724;49.910;12.530;2022-12-07T10:01:29;-0.50;99.90
1461;DHT22;724;49.910;12.530;2022-12-07T10:04:02;-0.40;99.90
1461;DHT22;724;49.910;12.530;2022-12-07T10:06:33;-0.50;99.90
1461;DHT22;724;49.910;12.530;2022-12-07T10:09:00;-0.40;99.90
1461;DHT22;724;49.910;12.530;2022-12-07T10:11:29;-0.50;99.90
1461;DHT22;724;49.910;12.530;2022-12-07T10:14:12;-0.50;99.90
1461;DHT22;724;49.910;12.530;2022-12-07T10:16:40;-0.40;99.90
1461;DHT22;724;49.910;12.530;2022-12-07T10:19:21;-0.40;99.90
1461;DHT22;724;49.910;12.530;2022-12-07T10:22:09;-0.40;99.90
1461;DHT22;724;49.910;12.530;2022-12-07T10:24:36;-0.40;99.90
1461;DHT22;724;49.910;12.530;2022-12-07T10:27:18;-0.30;99.90
1461;DHT22;724;49.910;12.530;2022-12-07T10:29:48;-0.30;99.90
1461;DHT22;724;49.910;12.530;2022-12-07T10:32:29;-0.20;99.90
1461;DHT22;724;49.910;12.530;2022-12-07T10:35:22;-0.10;99.90
1461;DHT22;724;49.910;12.530;2022-12-07T10:37:50;-0.20;99.90
1461;DHT22;724;49.910;12.530;2022-12-07T10:40:27;-0.30;99.90
1461;DHT22;724;49.910;12.530;2022-12-07T10:43:04;-0.20;99.90
1461;DHT22;724;49.910;12.530;2022-12-07T10:45:32;-0.20;99.90
1461;DHT22;724;49.910;12.530;2022-12-07T10:48:04;-0.10;99.90
1461;DHT22;724;49.910;12.530;2022-12-07T10:50:47;-0.10;99.90
1461;DHT22;724;49.910;12.530;2022-12-07T10:53:33;-0.10;99.90
1461;DHT22;724;49.910;12.530;2022-12-07T10:56:18;-0.20;99.90
1461;DHT22;724;49.910;12.530;2022-12-07T10:58:59;-0.10;99.90
1461;DHT22;724;49.910;12.530;2022-12-07T11:01:31;-0.10;99.90
1461;DHT22;724;49.910;12.530;2022-12-07T11:04:18;0.00;99.90
1461;DHT22;724;49.910;12.530;2022-12-07T11:06:53;0.00;99.90
1461;DHT22;724;49.910;12.530;2022-12-07T11:09:43;0.00;99.90
1461;DHT22;724;49.910;12.530;2022-12-07T11:12:20;0.10;99.90
1461;DHT22;724;49.910;12.530;2022-12-07T11:14:58;0.00;99.90
1461;DHT22;724;49.910;12.530;2022-12-07T11:17:34;-0.10;99.90
1461;DHT22;724;49.910;12.530;2022-12-07T11:20:12;0.10;99.90
1461;DHT22;724;49.910;12.530;2022-12-07T11:22:47;0.10;99.90
1461;DHT22;724;49.910;12.530;2022-12-07T11:25:21;0.10;99.90
1461;DHT22;724;49.910;12.530;2022-12-07T11:28:02;0.00;99.90
1461;DHT22;724;49.910;12.530;2022-12-07T11:30:34;0.00;99.90
1461;DHT22;724;49.910;12.530;2022-12-07T11:33:12;0.00;99.90
1461;DHT22;724;49.910;12.530;2022-12-07T11:35:50;0.00;99.90
1461;DHT22;724;49.910;12.530;2022-12-07T11:38:23;0.00;99.90
1461;DHT22;724;49.910;12.530;2022-12-07T11:40:54;0.00;99.90
1461;DHT22;724;49.910;12.530;2022-12-07T11:43:51;0.00;99.90
1461;DHT22;724;49.910;12.530;2022-12-07T11:46:23;0.10;99.90
1461;DHT22;724;49.910;12.530;2022-12-07T11:48:55;0.00;99.90
1461;DHT22;724;49.910;12.530;2022-12-07T11:51:25;0.10;99.90
1461;DHT22;724;49.910;12.530;2022-12-07T11:53:57;0.10;99.90
1461;DHT22;724;49.910;12.530;2022-12-07T11:56:27;0.10;99.90
1461;DHT22;724;49.910;12.530;2022-12-07T11:58:57;0.10;99.90
1461;DHT22;724;49.910;12.530;2022-12-07T12:01:39;0.10;99.90
1461;DHT22;724;49.910;12.530;2022-12-07T12:04:22;0.20;99.90
1461;DHT22;724;49.910;12.530;2022-12-07T12:06:51;0.20;99.90
1461;DHT22;724;49.910;12.530;2022-12-07T12:09:21;0.20;99.90
1461;DHT22;724;49.910;12.530;2022-12-07T12:12:06;0.20;99.90
1461;DHT22;724;49.910;12.530;2022-12-07T12:14:46;0.10;99.90
1461;DHT22;724;49.910;12.530;2022-12-07T12:20:20;0.10;99.90
1461;DHT22;724;49.910;12.530;2022-12-07T12:22:53;0.20;99.90
1461;DHT22;724;49.910;12.530;2022-12-07T12:25:24;0.20;99.90
1461;DHT22;724;49.910;12.530;2022-12-07T12:27:55;0.20;99.90
1461;DHT22;724;49.910;12.530;2022-12-07T12:30:40;0.20;99.90
1461;DHT22;724;49.910;12.530;2022-12-07T12:33:14;0.30;99.90
1461;DHT22;724;49.910;12.530;2022-12-07T12:35:44;0.30;99.90
1461;DHT22;724;49.910;12.530;2022-12-07T12:38:26;0.30;99.90
1461;DHT22;724;49.910;12.530;2022-12-07T12:40:54;0.40;99.90
1461;DHT22;724;49.910;12.530;2022-12-07T12:43:44;0.30;99.90
1461;DHT22;724;49.910;12.530;2022-12-07T12:46:52;0.40;99.90
1461;DHT22;724;49.910;12.530;2022-12-07T12:49:34;0.40;99.90
1461;DHT22;724;49.910;12.530;2022-12-07T12:55:15;0.50;99.90
1461;DHT22;724;49.910;12.530;2022-12-07T12:57:47;0.50;99.90
1461;DHT22;724;49.910;12.530;2022-12-07T13:00:17;0.70;99.90
1461;DHT22;724;49.910;12.530;2022-12-07T13:02:49;0.70;99.90
1461;DHT22;724;49.910;12.530;2022-12-07T13:05:19;0.90;99.90
1461;DHT22;724;49.910;12.530;2022-12-07T13:08:02;0.70;99.90
1461;DHT22;724;49.910;12.530;2022-12-07T13:10:40;0.70;99.90
1461;DHT22;724;49.910;12.530;2022-12-07T13:13:34;0.70;99.90
1461;DHT22;724;49.910;12.530;2022-12-07T13:19:53;0.70;99.90
1461;DHT22;724;49.910;12.530;2022-12-07T13:22:47;0.60;99.90
1461;DHT22;724;49.910;12.530;2022-12-07T13:25:33;0.50;99.90
1461;DHT22;724;49.910;12.530;2022-12-07T13:28:11;0.50;99.90
1461;DHT22;724;49.910;12.530;2022-12-07T13:30:45;0.60;99.90
1461;DHT22;724;49.910;12.530;2022-12-07T13:33:14;0.50;99.90
1461;DHT22;724;49.910;12.530;2022-12-07T13:35:42;0.50;99.90
1461;DHT22;724;49.910;12.530;2022-12-07T13:38:22;0.40;99.90
1461;DHT22;724;49.910;12.530;2022-12-07T13:41:12;0.40;99.90
1461;DHT22;724;49.910;12.530;2022-12-07T13:43:49;0.40;99.90
1461;DHT22;724;49.910;12.530;2022-12-07T13:46:18;0.40;99.90
1461;DHT22;724;49.910;12.530;2022-12-07T13:48:47;0.40;99.90
1461;DHT22;724;49.910;12.530;2022-12-07T13:51:22;0.30;99.90
1461;DHT22;724;49.910;12.530;2022-12-07T13:53:50;0.30;99.90
1461;DHT22;724;49.910;12.530;2022-12-07T13:56:22;0.30;99.90
1461;DHT22;724;49.910;12.530;2022-12-07T13:58:50;0.30;99.90
1461;DHT22;724;49.910;12.530;2022-12-07T14:01:17;0.40;99.90
1461;DHT22;724;49.910;12.530;2022-12-07T14:03:44;0.30;99.90
1461;DHT22;724;49.910;12.530;2022-12-07T14:06:17;0.30;99.90
1461;DHT22;724;49.910;12.530;2022-12-07T14:08:44;0.20;99.90
1461;DHT22;724;49.910;12.530;2022-12-07T14:11:15;0.20;99.90
1461;DHT22;724;49.910;12.530;2022-12-07T14:13:53;0.20;99.90
1461;DHT22;724;49.910;12.530;2022-12-07T14:16:24;0.20;99.90
1461;DHT22;724;49.910;12.530;2022-12-07T14:18:53;0.20;99.90
1461;DHT22;724;49.910;12.530;2022-12-07T14:21:22;0.20;99.90
1461;DHT22;724;49.910;12.530;2022-12-07T14:24:07;0.20;99.90
1461;DHT22;724;49.910;12.530;2022-12-07T14:26:36;0.20;99.90
1461;DHT22;724;49.910;12.530;2022-12-07T14:29:21;0.10;99.90
1461;DHT22;724;49.910;12.530;2022-12-07T14:31:49;0.20;99.90
1461;DHT22;724;49.910;12.530;2022-12-07T14:34:16;0.20;99.90
1461;DHT22;724;49.910;12.530;2022-12-07T14:36:43;0.10;99.90
1461;DHT22;724;49.910;12.530;2022-12-07T14:39:10;0.10;99.90
1461;DHT22;724;49.910;12.530;2022-12-07T14:41:36;0.10;99.90
1461;DHT22;724;49.910;12.530;2022-12-07T14:44:21;0.10;99.90
1461;DHT22;724;49.910;12.530;2022-12-07T14:46:49;0.10;99.90
1461;DHT22;724;49.910;12.530;2022-12-07T14:49:16;0.10;99.90
1461;DHT22;724;49.910;12.530;2022-12-07T14:51:45;0.00;99.90
1461;DHT22;724;49.910;12.530;2022-12-07T14:54:15;0.10;99.90
1461;DHT22;724;49.910;12.530;2022-12-07T14:56:43;0.10;99.90
1461;DHT22;724;49.910;12.530;2022-12-07T14:59:14;0.10;99.90
1461;DHT22;724;49.910;12.530;2022-12-07T15:01:42;0.10;99.90
1461;DHT22;724;49.910;12.530;2022-12-07T15:04:10;0.00;99.90
1461;DHT22;724;49.910;12.530;2022-12-07T15:06:37;0.10;99.90
1461;DHT22;724;49.910;12.530;2022-12-07T15:09:04;0.10;99.90
1461;DHT22;724;49.910;12.530;2022-12-07T15:11:31;0.00;99.90
1461;DHT22;724;49.910;12.530;2022-12-07T15:13:58;0.00;99.90
1461;DHT22;724;49.910;12.530;2022-12-07T15:16:42;0.00;99.90
1461;DHT22;724;49.910;12.530;2022-12-07T15:19:13;0.00;99.90
1461;DHT22;724;49.910;12.530;2022-12-07T15:21:41;0.00;99.90
1461;DHT22;724;49.910;12.530;2022-12-07T15:24:09;-0.10;99.90
1461;DHT22;724;49.910;12.530;2022-12-07T15:26:36;-0.10;99.90
1461;DHT22;724;49.910;12.530;2022-12-07T15:29:04;-0.10;99.90
1461;DHT22;724;49.910;12.530;2022-12-07T15:31:31;-0.10;99.90
1461;DHT22;724;49.910;12.530;2022-12-07T15:34:01;0.00;99.90
1461;DHT22;724;49.910;12.530;2022-12-07T15:36:29;-0.10;99.90
1461;DHT22;724;49.910;12.530;2022-12-07T15:38:58;0.00;99.90
1461;DHT22;724;49.910;12.530;2022-12-07T15:41:25;0.00;99.90
1461;DHT22;724;49.910;12.530;2022-12-07T15:43:52;0.00;99.90
1461;DHT22;724;49.910;12.530;2022-12-07T15:46:38;0.00;99.90
1461;DHT22;724;49.910;12.530;2022-12-07T15:49:11;0.00;99.90
1461;DHT22;724;49.910;12.530;2022-12-07T15:51:38;0.00;99.90
1461;DHT22;724;49.910;12.530;2022-12-07T15:54:05;0.00;99.90
1461;DHT22;724;49.910;12.530;2022-12-07T15:56:32;0.10;99.90
1461;DHT22;724;49.910;12.530;2022-12-07T15:58:59;0.00;99.90
1461;DHT22;724;49.910;12.530;2022-12-07T16:01:26;0.00;99.90
1461;DHT22;724;49.910;12.530;2022-12-07T16:03:52;0.00;99.90
1461;DHT22;724;49.910;12.530;2022-12-07T16:06:21;0.00;99.90
1461;DHT22;724;49.910;12.530;2022-12-07T16:08:49;0.00;99.90
1461;DHT22;724;49.910;12.530;2022-12-07T16:11:16;0.00;99.90
1461;DHT22;724;49.910;12.530;2022-12-07T16:13:42;0.00;99.90
1461;DHT22;724;49.910;12.530;2022-12-07T16:16:12;-0.10;99.90
1461;DHT22;724;49.910;12.530;2022-12-07T16:18:39;-0.10;99.90
1461;DHT22;724;49.910;12.530;2022-12-07T16:21:08;-0.10;99.90
1461;DHT22;724;49.910;12.530;2022-12-07T16:23:36;0.00;99.90
1461;DHT22;724;49.910;12.530;2022-12-07T16:26:07;0.00;99.90
1461;DHT22;724;49.910;12.530;2022-12-07T16:28:34;0.00;99.90
1461;DHT22;724;49.910;12.530;2022-12-07T16:31:03;-0.10;99.90
1461;DHT22;724;49.910;12.530;2022-12-07T16:33:33;-0.10;99.90
1461;DHT22;724;49.910;12.530;2022-12-07T16:36:00;-0.10;99.90
1461;DHT22;724;49.910;12.530;2022-12-07T16:38:27;-0.10;99.90
1461;DHT22;724;49.910;12.530;2022-12-07T16:40:55;-0.10;99.90